Time;durP1;ratioP1;P1;durP2;ratioP2;P2;SDS_P1;SDS_P2;PMS_P1;PMS_P2;Temp;Humidity;BMP_temperature;BMP_pressure;BME280_temperature;BME280_humidity;BME280_pressure;Samples;Min_cycle;Max_cycle;Signal;HPM_P1;HPM_P2
2022/04/01 00:01:40;;;;;;;8.68;7.07;;;;;;;2.62;42.28;93734.63;5037887;28;20190;-70
2022/04/01 00:04:06;;;;;;;8.18;6.70;;;;;;;2.51;42.60;93740.28;5030716;28;20179;-69
2022/04/01 00:06:31;;;;;;;8.35;6.88;;;;;;;2.36;43.93;93751.53;5023484;28;20102;-68
2022/04/01 00:08:56;;;;;;;8.63;6.82;;;;;;;2.32;43.97;93746.78;5006812;28;20120;-67
2022/04/01 00:11:22;;;;;;;7.38;6.20;;;;;;;2.47;42.70;93749.50;5034667;28;20510;-67
2022/04/01 00:13:47;;;;;;;8.75;5.97;;;;;;;2.57;42.09;93744.84;5035472;28;20583;-67
2022/04/01 00:16:13;;;;;;;8.40;6.63;;;;;;;2.71;41.68;93742.44;4989505;28;20448;-67
2022/04/01 00:18:38;;;;;;;7.70;6.35;;;;;;;2.39;42.48;93748.53;4993925;28;20196;-66
2022/04/01 00:21:04;;;;;;;8.00;6.40;;;;;;;2.37;42.41;93752.34;5004167;28;20086;-66
2022/04/01 00:23:29;;;;;;;7.40;6.47;;;;;;;2.53;42.22;93743.56;5005108;28;20646;-66
2022/04/01 00:25:55;;;;;;;6.97;5.93;;;;;;;2.65;41.90;93738.69;4996240;28;20110;-68
2022/04/01 00:28:20;;;;;;;7.20;5.97;;;;;;;2.35;42.68;93741.19;5001638;28;20498;-66
2022/04/01 00:30:45;;;;;;;7.65;5.90;;;;;;;2.44;42.61;93744.56;5015510;28;20106;-67
2022/04/01 00:33:11;;;;;;;7.20;5.90;;;;;;;2.34;43.01;93737.75;5018524;28;20605;-66
2022/04/01 00:35:37;;;;;;;7.55;6.20;;;;;;;2.37;42.48;93741.84;5024850;28;20101;-67
2022/04/01 00:38:02;;;;;;;6.85;5.47;;;;;;;2.25;42.70;93742.22;5024366;28;20102;-67
2022/04/01 00:40:27;;;;;;;7.25;6.00;;;;;;;2.27;43.33;93742.06;5022073;28;20100;-67
2022/04/01 00:42:53;;;;;;;7.22;6.03;;;;;;;2.29;42.38;93742.72;5014508;28;20110;-67
2022/04/01 00:45:18;;;;;;;7.60;6.10;;;;;;;2.20;42.63;93736.69;5021356;28;20080;-67
2022/04/01 00:47:44;;;;;;;6.85;6.10;;;;;;;2.17;42.57;93741.47;5012573;28;20329;-67
2022/04/01 00:50:10;;;;;;;7.10;5.88;;;;;;;2.26;42.67;93740.41;5016242;28;20102;-67
2022/04/01 00:52:36;;;;;;;7.30;5.88;;;;;;;2.14;42.70;93737.34;4992289;28;20091;-66
2022/04/01 00:55:05;;;;;;;7.15;5.72;;;;;;;2.03;43.40;93740.34;5033743;28;20605;-67
2022/04/01 00:57:31;;;;;;;7.68;6.28;;;;;;;1.72;44.46;93736.72;5027574;28;20140;-67
2022/04/01 00:59:56;;;;;;;6.72;5.80;;;;;;;1.85;43.13;93744.03;5044840;28;20105;-68
2022/04/01 01:02:22;;;;;;;6.53;5.63;;;;;;;1.97;42.50;93734.81;5005463;28;20176;-68
2022/04/01 01:04:47;;;;;;;7.38;6.18;;;;;;;1.93;43.34;93735.31;4995683;28;20083;-69
2022/04/01 01:07:13;;;;;;;7.40;5.88;;;;;;;1.53;44.80;93737.88;4987359;28;20110;-69
2022/04/01 01:09:39;;;;;;;7.15;5.72;;;;;;;1.77;43.61;93733.59;4994616;28;20543;-70
2022/04/01 01:12:06;;;;;;;7.20;5.70;;;;;;;1.70;44.56;93731.63;5003189;28;20082;-69
2022/04/01 01:14:34;;;;;;;6.78;5.68;;;;;;;1.79;43.35;93732.41;5004272;28;20109;-69
2022/04/01 01:17:00;;;;;;;6.40;5.47;;;;;;;1.72;43.69;93724.41;4992729;28;20075;-68
2022/04/01 01:19:26;;;;;;;6.47;5.40;;;;;;;1.57;44.13;93728.72;5023011;28;20132;-68
2022/04/01 01:21:53;;;;;;;7.00;5.50;;;;;;;1.66;43.42;93724.28;5011167;28;20511;-69
2022/04/01 01:24:29;;;;;;;5.80;5.00;;;;;;;1.58;43.87;93725.94;5024421;28;20081;-68
2022/04/01 01:26:55;;;;;;;6.82;5.32;;;;;;;1.44;44.49;93722.19;5018729;28;20653;-68
2022/04/01 01:29:25;;;;;;;6.97;5.00;;;;;;;1.71;43.77;93728.00;5021695;28;20448;-69
2022/04/01 01:31:52;;;;;;;6.80;5.57;;;;;;;1.65;43.42;93718.19;5003121;28;20132;-68
2022/04/01 01:34:18;;;;;;;6.55;5.40;;;;;;;1.58;44.09;93704.94;5022736;28;20109;-70
2022/04/01 01:36:43;;;;;;;6.82;5.50;;;;;;;1.58;43.69;93712.00;5017381;28;20744;-69
2022/04/01 01:39:09;;;;;;;6.80;5.70;;;;;;;1.67;43.50;93700.47;4989171;28;20434;-68
2022/04/01 01:41:34;;;;;;;5.85;5.00;;;;;;;1.52;43.78;93702.97;4985908;28;20689;-68
2022/04/01 01:43:59;;;;;;;6.00;5.00;;;;;;;1.31;44.63;93703.50;4995298;28;20125;-69
2022/04/01 01:46:26;;;;;;;6.43;5.10;;;;;;;1.20;44.35;93696.81;4986538;28;20125;-69
2022/04/01 01:48:51;;;;;;;5.47;4.72;;;;;;;1.34;44.33;93706.63;5001941;28;20604;-69
2022/04/01 01:56:44;;;;;;;5.55;4.85;;;;;;;1.54;44.66;93708.91;4992213;28;20207;-69
2022/04/01 01:59:12;;;;;;;5.93;4.97;;;;;;;1.39;45.26;93713.97;5017353;28;20139;-69
2022/04/01 02:01:39;;;;;;;6.07;4.72;;;;;;;1.37;44.63;93706.28;5018689;28;20176;-68
2022/04/01 02:04:04;;;;;;;6.05;4.70;;;;;;;1.15;45.47;93706.97;4997701;28;20455;-68
2022/04/01 02:06:30;;;;;;;5.85;4.70;;;;;;;1.10;45.31;93705.66;4991036;28;20445;-68
2022/04/01 02:08:55;;;;;;;6.47;4.88;;;;;;;1.20;45.23;93705.47;4993979;28;20090;-68
2022/04/01 02:11:24;;;;;;;5.50;4.53;;;;;;;1.18;45.74;93704.00;4991570;28;20634;-69
2022/04/01 02:13:50;;;;;;;5.65;4.68;;;;;;;1.12;44.95;93697.63;5001968;28;20121;-68
2022/04/01 02:16:16;;;;;;;5.57;4.50;;;;;;;1.36;44.80;93696.78;4993515;28;20085;-69
2022/04/01 02:18:41;;;;;;;5.57;4.50;;;;;;;1.34;46.40;93696.13;5001423;28;20106;-68
2022/04/01 02:21:15;;;;;;;5.80;4.40;;;;;;;1.17;45.67;93702.38;4994951;28;20121;-67
2022/04/01 02:23:43;;;;;;;6.28;4.40;;;;;;;1.11;46.26;93703.88;5019917;28;20136;-68
2022/04/01 02:26:09;;;;;;;5.28;4.60;;;;;;;1.37;44.75;93713.34;5015047;28;20557;-69
2022/04/01 02:28:35;;;;;;;5.97;4.82;;;;;;;1.23;44.64;93705.16;5000463;28;20122;-68
2022/04/01 02:31:00;;;;;;;4.72;4.18;;;;;;;1.27;45.74;93708.28;5021123;28;20122;-69
2022/04/01 02:33:27;;;;;;;4.78;4.28;;;;;;;1.51;44.21;93706.56;5017179;28;20734;-68
2022/04/01 02:35:54;;;;;;;5.60;4.50;;;;;;;1.43;44.95;93715.28;5015896;28;20102;-68
2022/04/01 02:38:19;;;;;;;6.22;4.60;;;;;;;1.01;45.44;93716.31;5010844;28;20125;-68
2022/04/01 02:40:44;;;;;;;5.70;4.45;;;;;;;1.18;44.54;93715.34;5023158;28;20551;-68
2022/04/01 02:43:10;;;;;;;5.13;4.32;;;;;;;1.59;43.39;93717.06;5009874;28;20116;-68
2022/04/01 02:45:35;;;;;;;4.82;4.10;;;;;;;1.71;44.10;93717.50;5015863;28;20309;-68
2022/04/01 02:48:01;;;;;;;5.60;4.20;;;;;;;1.65;43.93;93718.19;5007653;28;20086;-69
2022/04/01 02:50:26;;;;;;;5.13;4.15;;;;;;;1.85;42.96;93717.81;5022200;28;20320;-69
2022/04/01 02:52:51;;;;;;;5.45;4.15;;;;;;;1.59;43.53;93718.88;5010370;28;20086;-69
2022/04/01 02:55:17;;;;;;;4.38;3.97;;;;;;;1.48;45.71;93723.47;5022172;28;20546;-68
2022/04/01 02:57:43;;;;;;;4.38;3.90;;;;;;;1.33;43.86;93725.16;5010600;28;20487;-68
2022/04/01 03:00:09;;;;;;;5.18;3.80;;;;;;;1.26;44.88;93727.59;5021417;28;20096;-68
2022/04/01 03:02:38;;;;;;;5.10;4.07;;;;;;;1.23;46.30;93725.31;5017760;28;20113;-69
2022/04/01 03:05:04;;;;;;;;;;;;;;;1.15;46.03;93730.56;5023113;28;20074;-68
2022/04/01 03:07:30;;;;;;;5.32;3.95;;;;;;;1.43;43.71;93727.59;5009033;28;20495;-68
2022/04/01 03:09:56;;;;;;;6.75;4.35;;;;;;;1.40;43.65;93723.47;5009724;28;20361;-68
2022/04/01 03:12:21;;;;;;;4.82;4.10;;;;;;;1.49;44.29;93717.22;5010608;28;20610;-68
2022/04/01 03:14:48;;;;;;;6.70;4.60;;;;;;;1.41;43.09;93722.50;5019623;28;20113;-69
2022/04/01 03:17:13;;;;;;;4.25;3.55;;;;;;;1.10;43.94;93731.88;5017578;28;20487;-69
2022/04/01 03:19:39;;;;;;;5.25;4.38;;;;;;;1.45;43.19;93725.59;5017448;28;20079;-68
2022/04/01 03:22:05;;;;;;;5.90;4.70;;;;;;;1.57;42.86;93732.16;5004720;28;20125;-68
2022/04/01 03:24:31;;;;;;;6.22;4.82;;;;;;;1.12;43.73;93734.34;5018553;28;20077;-69
2022/04/01 03:26:56;;;;;;;6.72;4.60;;;;;;;1.05;43.78;93733.34;5015140;28;20591;-68
2022/04/01 03:29:22;;;;;;;6.53;4.78;;;;;;;1.19;45.61;93737.13;5016122;28;20330;-68
2022/04/01 03:31:48;;;;;;;6.18;4.80;;;;;;;1.33;43.93;93736.44;5017731;28;20378;-68
2022/04/01 03:34:14;;;;;;;5.13;4.20;;;;;;;1.22;44.10;93740.22;5020713;28;20276;-68
2022/04/01 03:36:39;;;;;;;5.20;4.20;;;;;;;0.73;46.92;93746.31;5008071;28;20086;-68
2022/04/01 03:39:05;;;;;;;7.28;4.75;;;;;;;0.71;46.06;93748.25;5015853;28;20132;-69
2022/04/01 03:41:30;;;;;;;6.10;5.25;;;;;;;1.26;43.52;93738.09;5010235;28;20184;-68
2022/04/01 03:43:56;;;;;;;6.82;5.07;;;;;;;0.97;45.78;93742.06;5022319;28;20493;-70
2022/04/01 03:46:24;;;;;;;7.05;5.03;;;;;;;0.95;44.00;93739.59;5014813;28;20106;-69
2022/04/01 03:48:55;;;;;;;6.72;4.57;;;;;;;0.87;46.56;93741.38;5023993;28;20629;-69
2022/04/01 03:51:24;;;;;;;9.65;5.45;;;;;;;0.97;44.45;93752.53;5016494;28;20159;-68
2022/04/01 03:54:10;;;;;;;8.93;4.97;;;;;;;0.97;44.24;93749.91;5020977;28;20185;-68
2022/04/01 03:56:36;;;;;;;6.25;4.80;;;;;;;0.86;43.57;93751.06;5015720;28;20580;-67
2022/04/01 03:59:06;;;;;;;6.72;4.40;;;;;;;0.72;44.53;93755.97;5023694;28;20177;-68
2022/04/01 04:01:32;;;;;;;6.13;4.65;;;;;;;0.77;45.11;93765.97;5019788;28;20101;-68
2022/04/01 04:03:57;;;;;;;6.03;4.72;;;;;;;0.80;44.95;93764.81;5026154;28;20382;-68
2022/04/01 04:06:23;;;;;;;7.78;5.38;;;;;;;0.83;44.19;93769.72;5012205;28;20110;-69
2022/04/01 04:09:01;;;;;;;5.65;4.53;;;;;;;0.95;45.08;93764.97;5022595;28;20562;-69
2022/04/01 04:11:28;;;;;;;6.82;4.90;;;;;;;1.04;43.36;93771.88;5011835;28;20102;-69
2022/04/01 04:13:55;;;;;;;6.93;5.18;;;;;;;1.16;44.11;93769.72;5025581;28;20553;-68
2022/04/01 04:16:24;;;;;;;8.15;5.25;;;;;;;1.29;43.00;93777.09;5012255;28;20086;-69
2022/04/01 04:18:56;;;;;;;8.15;5.43;;;;;;;1.28;43.38;93770.22;5025067;28;20101;-69
2022/04/01 04:21:25;;;;;;;8.65;5.40;;;;;;;1.54;42.58;93778.91;5011514;28;20575;-68
2022/04/01 04:23:57;;;;;;;6.57;4.88;;;;;;;1.42;42.88;93783.63;5025345;28;20070;-70
2022/04/01 04:26:30;;;;;;;7.00;4.78;;;;;;;1.44;42.27;93789.53;5023801;28;20106;-68
2022/04/01 04:29:08;;;;;;;6.82;5.00;;;;;;;1.64;42.39;93782.16;5025280;28;20121;-69
2022/04/01 04:31:34;;;;;;;8.02;4.85;;;;;;;1.46;43.04;93785.75;5024054;28;20097;-69
2022/04/01 04:33:59;;;;;;;6.72;4.90;;;;;;;1.42;42.48;93791.50;5024869;28;20108;-69
2022/04/01 04:36:30;;;;;;;6.47;4.70;;;;;;;1.72;41.88;93791.81;5007126;28;20570;-68
2022/04/01 04:38:56;;;;;;;6.40;4.70;;;;;;;1.74;41.67;93793.28;5022481;28;20195;-69
2022/04/01 04:41:21;;;;;;;8.30;5.00;;;;;;;1.69;42.21;93797.38;5014981;28;20090;-68
2022/04/01 04:43:47;;;;;;;6.03;4.70;;;;;;;1.57;41.85;93800.34;5023739;28;20078;-69
2022/04/01 04:46:13;;;;;;;6.68;4.65;;;;;;;1.75;41.00;93801.97;5014133;28;20460;-69
2022/04/01 04:48:40;;;;;;;6.47;4.63;;;;;;;1.34;43.65;93806.28;5023986;28;20169;-69
2022/04/01 04:51:07;;;;;;;5.63;4.25;;;;;;;0.99;44.05;93803.00;5013315;28;20098;-68
2022/04/01 04:53:34;;;;;;;8.82;4.40;;;;;;;1.35;41.59;93807.06;5020959;28;20194;-69
2022/04/01 04:56:00;;;;;;;5.15;3.75;;;;;;;1.06;44.26;93809.19;5012255;28;20101;-70
2022/04/01 04:58:45;;;;;;;6.03;4.35;;;;;;;1.02;42.66;93813.13;5022446;28;20179;-68
2022/04/01 05:01:38;;;;;;;6.40;4.28;;;;;;;1.24;42.87;93813.47;5014257;28;20102;-70
2022/04/01 05:04:21;;;;;;;6.82;4.70;;;;;;;1.33;42.51;93820.34;5029347;28;20171;-68
2022/04/01 05:07:03;;;;;;;8.70;4.72;;;;;;;1.41;42.10;93829.19;5042335;28;20105;-68
2022/04/01 05:09:40;;;;;;;6.68;4.47;;;;;;;1.02;41.68;93828.84;5029073;28;20115;-69
2022/04/01 05:12:28;;;;;;;9.05;4.82;;;;;;;1.31;41.19;93832.81;5040218;28;20084;-69
2022/04/01 05:15:05;;;;;;;5.57;3.80;;;;;;;1.34;44.13;93845.59;4989266;28;20713;-68
2022/04/01 05:17:37;;;;;;;5.43;4.00;;;;;;;1.19;41.59;93837.56;4999077;28;20110;-68
2022/04/01 05:20:20;;;;;;;6.35;4.35;;;;;;;1.20;41.93;93839.19;4988993;28;20140;-68
2022/04/01 05:22:54;;;;;;;7.03;4.50;;;;;;;1.13;42.44;93842.63;4999474;28;20105;-68
2022/04/01 05:25:22;;;;;;;8.00;4.45;;;;;;;1.13;42.36;93843.47;4994894;28;20193;-70
2022/04/01 05:27:49;;;;;;;5.78;3.90;;;;;;;1.06;41.73;93853.75;5020194;28;20542;-68
2022/04/01 05:30:17;;;;;;;8.40;4.60;;;;;;;1.24;42.70;93847.56;5032133;28;20462;-68
2022/04/01 05:33:08;;;;;;;6.60;4.70;;;;;;;1.01;43.67;93852.59;5028449;28;20082;-68
2022/04/01 05:35:36;;;;;;;6.03;4.07;;;;;;;0.84;42.22;93857.81;5043215;28;20528;-68
2022/04/01 05:38:01;;;;;;;6.18;4.35;;;;;;;0.82;42.92;93859.81;5005003;28;20113;-69
2022/04/01 05:40:28;;;;;;;5.57;4.22;;;;;;;0.90;41.66;93861.59;4993349;28;20574;-68
2022/04/01 05:42:55;;;;;;;6.25;4.25;;;;;;;0.61;41.69;93861.03;4992536;28;20106;-68
2022/04/01 05:45:20;;;;;;;6.30;4.25;;;;;;;0.58;41.54;93864.78;4996788;28;20185;-68
2022/04/01 05:47:46;;;;;;;8.65;4.30;;;;;;;0.85;42.18;93877.78;4986534;28;20093;-69
2022/04/01 05:50:12;;;;;;;5.85;4.00;;;;;;;1.07;41.38;93878.19;4999656;28;20571;-69
2022/04/01 05:52:37;;;;;;;5.97;4.28;;;;;;;0.98;42.43;93883.41;4989743;28;20091;-68
2022/04/01 05:55:03;;;;;;;5.68;4.22;;;;;;;0.97;41.05;93884.41;4992499;28;20110;-68
2022/04/01 05:57:28;;;;;;;5.53;4.00;;;;;;;1.18;40.64;93890.16;5005083;28;20090;-69
2022/04/01 05:59:54;;;;;;;5.00;3.80;;;;;;;1.34;40.51;93889.34;5021795;28;20108;-68
2022/04/01 06:02:27;;;;;;;5.03;4.00;;;;;;;1.42;39.75;93893.78;5011269;28;20582;-68
2022/04/01 06:05:08;;;;;;;5.03;3.80;;;;;;;1.29;41.11;93900.31;4991004;28;20078;-71
2022/04/01 06:07:57;;;;;;;6.25;4.22;;;;;;;0.91;41.55;93895.50;4993290;28;20780;-68
2022/04/01 06:10:43;;;;;;;6.75;3.95;;;;;;;1.01;40.98;93898.00;5003062;28;20659;-69
2022/04/01 06:13:15;;;;;;;6.30;4.03;;;;;;;1.17;39.99;93906.88;5002283;28;20070;-69
2022/04/01 06:16:05;;;;;;;6.22;3.85;;;;;;;1.10;40.18;93909.31;5002796;28;20204;-69
2022/04/01 06:18:37;;;;;;;10.15;4.00;;;;;;;0.96;40.27;93905.53;4987693;28;20475;-69
2022/04/01 06:21:03;;;;;;;5.32;3.85;;;;;;;1.08;40.88;93916.50;4989135;28;20291;-69
2022/04/01 06:23:50;;;;;;;5.00;3.72;;;;;;;0.97;42.14;93915.03;4988289;28;20115;-69
2022/04/01 06:26:16;;;;;;;4.35;3.50;;;;;;;1.19;40.45;93923.28;4994025;28;20566;-68
2022/04/01 06:29:08;;;;;;;5.38;4.10;;;;;;;1.07;40.56;93926.19;5079441;27;20456;-69
2022/04/01 06:31:34;;;;;;;5.25;3.60;;;;;;;1.19;39.71;93924.06;5015135;28;20140;-69
2022/04/01 06:34:14;;;;;;;6.05;4.00;;;;;;;1.11;40.91;93934.53;5021328;28;20105;-68
2022/04/01 06:37:02;;;;;;;5.93;3.70;;;;;;;1.10;39.97;93932.91;5030161;28;20088;-68
2022/04/01 06:39:35;;;;;;;3.80;3.40;;;;;;;1.09;41.26;93932.06;5018073;28;20189;-68
2022/04/01 06:42:00;;;;;;;4.90;3.45;;;;;;;1.21;40.04;93942.25;5017040;28;20273;-68
2022/04/01 06:44:26;;;;;;;5.25;3.92;;;;;;;1.40;39.43;93945.59;5034024;28;20077;-69
2022/04/01 06:46:51;;;;;;;4.93;4.00;;;;;;;1.10;38.57;93952.06;5023326;28;20097;-68
2022/04/01 06:49:17;;;;;;;4.75;3.63;;;;;;;1.41;38.88;93952.47;5053105;28;20370;-68
2022/04/01 06:51:43;;;;;;;5.18;4.07;;;;;;;1.40;39.67;93951.63;5047138;28;20246;-68
2022/04/01 06:54:08;;;;;;;7.28;4.20;;;;;;;1.36;40.42;93948.53;5052162;28;20117;-68
2022/04/01 06:56:34;;;;;;;5.85;4.10;;;;;;;1.19;39.61;93942.41;5054710;28;20091;-69
2022/04/01 06:58:59;;;;;;;6.22;4.35;;;;;;;0.96;40.39;93960.56;5043082;28;20517;-68
2022/04/01 07:01:25;;;;;;;7.15;4.70;;;;;;;1.18;43.75;93963.56;5046012;28;20107;-69
2022/04/01 07:03:52;;;;;;;8.02;5.95;;;;;;;1.09;44.55;93966.16;5048203;28;20131;-68
2022/04/01 07:06:18;;;;;;;6.60;5.00;;;;;;;1.26;43.51;93954.91;5031251;28;20575;-68
2022/04/01 07:08:43;;;;;;;9.95;4.72;;;;;;;1.18;42.16;93960.94;5037790;28;20530;-69
2022/04/01 07:11:09;;;;;;;6.85;5.10;;;;;;;1.19;44.73;93970.47;5045429;28;20166;-68
2022/04/01 07:13:34;;;;;;;7.78;4.90;;;;;;;1.53;45.26;93966.94;5037575;28;20129;-68
2022/04/01 07:16:00;;;;;;;7.55;4.88;;;;;;;1.53;43.40;93961.69;5038898;28;20405;-69
2022/04/01 07:18:26;;;;;;;9.10;4.40;;;;;;;1.58;45.08;93964.66;5044856;28;20591;-69
2022/04/01 07:20:52;;;;;;;6.78;4.40;;;;;;;1.57;43.87;93970.88;5044733;28;20451;-68
2022/04/01 07:23:17;;;;;;;7.88;4.10;;;;;;;1.40;41.41;93966.56;5030377;28;20286;-68
2022/04/01 07:25:43;;;;;;;5.18;4.15;;;;;;;1.43;43.75;93974.91;5029543;28;20119;-70
2022/04/01 07:28:09;;;;;;;6.85;4.47;;;;;;;1.49;44.43;93976.91;5044795;28;20121;-69
2022/04/01 07:30:35;;;;;;;6.68;4.45;;;;;;;1.71;44.07;93979.09;5028607;28;20179;-69
2022/04/01 07:33:01;;;;;;;6.05;4.13;;;;;;;1.50;39.89;93981.16;5040224;28;20094;-69
2022/04/01 07:35:27;;;;;;;4.88;4.00;;;;;;;1.57;42.76;93983.97;5016499;28;20119;-68
2022/04/01 07:37:52;;;;;;;6.35;4.07;;;;;;;1.68;43.72;93990.75;5033174;28;20101;-68
2022/04/01 07:40:20;;;;;;;5.28;3.85;;;;;;;1.77;41.87;93982.88;5013663;28;20549;-68
2022/04/01 07:42:46;;;;;;;6.23;4.50;;;;;;;1.70;43.89;93995.81;5003304;28;20416;-68
2022/04/01 07:45:11;;;;;;;7.60;4.72;;;;;;;1.47;44.51;93997.22;5007506;28;20500;-68
2022/04/01 07:47:37;;;;;;;6.80;3.92;;;;;;;1.56;42.93;93997.25;5018391;28;20109;-68
2022/04/01 07:50:04;;;;;;;6.55;4.47;;;;;;;1.42;41.64;93991.63;5014769;28;20381;-69
2022/04/01 07:52:29;;;;;;;5.20;3.70;;;;;;;1.37;41.53;93997.34;5029429;28;20463;-69
2022/04/01 07:54:54;;;;;;;6.40;4.50;;;;;;;1.62;42.27;94000.06;5015563;28;20132;-69
2022/04/01 07:57:20;;;;;;;8.57;4.50;;;;;;;1.72;41.03;93993.84;5011844;28;20074;-68
2022/04/01 07:59:46;;;;;;;11.95;7.18;;;;;;;1.66;43.66;94005.00;5007296;28;20078;-68
2022/04/01 08:02:12;;;;;;;12.30;9.40;;;;;;;1.71;43.68;94008.75;4999627;28;20098;-68
2022/04/01 08:04:37;;;;;;;12.27;8.40;;;;;;;1.85;42.39;94009.94;4993300;28;20101;-68
2022/04/01 08:07:03;;;;;;;13.63;9.57;;;;;;;1.70;41.36;94007.13;5002173;28;20164;-69
2022/04/01 08:09:28;;;;;;;10.50;7.60;;;;;;;1.71;39.88;94011.38;5004018;28;20631;-68
2022/04/01 08:11:54;;;;;;;11.98;8.00;;;;;;;1.70;40.19;94008.94;5014147;28;20078;-68
2022/04/01 08:14:20;;;;;;;10.02;6.53;;;;;;;1.35;42.88;94019.47;5017844;28;20094;-69
2022/04/01 08:16:45;;;;;;;8.68;6.30;;;;;;;1.42;39.28;94022.28;5017150;28;20076;-68
2022/04/01 08:19:11;;;;;;;11.50;7.22;;;;;;;1.47;42.79;94025.25;5008265;28;20229;-69
2022/04/01 08:21:37;;;;;;;14.48;10.32;;;;;;;1.79;42.92;94028.94;5005902;28;20742;-68
2022/04/01 08:24:02;;;;;;;14.85;9.30;;;;;;;1.55;41.50;94032.34;5014703;28;20078;-68
2022/04/01 08:26:28;;;;;;;12.88;9.48;;;;;;;1.75;40.09;94038.13;5016015;28;20574;-68
2022/04/01 08:28:53;;;;;;;7.97;5.07;;;;;;;1.33;41.39;94040.63;5023429;28;20104;-69
2022/04/01 08:31:20;;;;;;;14.02;9.93;;;;;;;1.70;42.59;94038.59;4994839;28;20107;-68
2022/04/01 08:33:46;;;;;;;10.88;6.50;;;;;;;1.80;38.95;94043.72;4995948;28;20114;-68
2022/04/01 08:36:12;;;;;;;19.23;12.10;;;;;;;1.75;42.33;94053.88;4989950;28;20579;-72
2022/04/01 08:38:37;;;;;;;13.80;9.20;;;;;;;1.49;41.28;94054.75;4988590;28;20124;-72
2022/04/01 08:41:03;;;;;;;18.48;11.13;;;;;;;1.51;40.36;94060.69;4995237;28;20492;-72
2022/04/01 08:43:30;;;;;;;14.63;8.70;;;;;;;1.60;39.53;94056.31;4992104;28;20102;-72
2022/04/01 08:45:57;;;;;;;12.15;7.82;;;;;;;0.82;42.88;94062.34;5000663;28;20098;-73
2022/04/01 08:48:23;;;;;;;16.70;9.82;;;;;;;1.51;41.21;94055.44;5019241;28;20719;-71
2022/04/01 08:50:50;;;;;;;20.48;15.80;;;;;;;1.77;43.00;94065.03;5029431;28;20197;-72
2022/04/01 08:53:15;;;;;;;20.02;13.57;;;;;;;1.72;41.38;94064.69;5039639;28;20649;-70
2022/04/01 08:55:47;;;;;;;12.60;9.23;;;;;;;1.64;42.22;94073.38;5042784;28;20085;-72
2022/04/01 08:58:12;;;;;;;12.48;7.97;;;;;;;1.60;38.15;94066.81;5041479;28;20120;-70
2022/04/01 09:00:38;;;;;;;12.80;8.52;;;;;;;1.81;42.54;94068.16;5042896;28;20184;-71
2022/04/01 09:03:08;;;;;;;13.95;8.85;;;;;;;1.68;40.79;94079.13;5043062;28;20108;-70
2022/04/01 09:05:33;;;;;;;11.98;7.75;;;;;;;2.09;37.63;94075.75;5032360;28;20365;-70
2022/04/01 09:08:06;;;;;;;13.80;5.75;;;;;;;2.05;40.95;94088.38;5035619;28;20606;-71
2022/04/01 09:10:52;;;;;;;25.27;15.43;;;;;;;2.16;40.57;94092.50;4995056;28;20495;-72
2022/04/01 09:13:17;;;;;;;17.23;10.73;;;;;;;2.42;37.88;94093.31;4985039;28;20089;-72
2022/04/01 09:15:43;;;;;;;16.20;11.40;;;;;;;2.20;39.69;94087.72;5010160;28;20470;-70
2022/04/01 09:18:09;;;;;;;19.33;13.63;;;;;;;2.44;41.63;94097.41;5020458;28;20116;-66
2022/04/01 09:20:44;;;;;;;18.80;11.98;;;;;;;2.35;40.10;94093.97;5040136;28;20536;-75
2022/04/01 09:23:10;;;;;;;21.40;12.35;;;;;;;2.51;39.93;94089.69;4984806;28;20399;-73
2022/04/01 09:25:35;;;;;;;23.60;16.10;;;;;;;2.63;40.62;94091.00;4989803;28;20107;-74
2022/04/01 09:28:01;;;;;;;27.92;17.58;;;;;;;2.82;39.30;94096.88;4996929;28;20530;-73
2022/04/01 09:30:28;;;;;;;14.30;9.15;;;;;;;2.76;39.06;94093.13;5001820;28;20110;-74
2022/04/01 09:32:57;;;;;;;19.00;11.60;;;;;;;2.86;40.62;94098.19;5002770;28;20166;-76
2022/04/01 09:35:25;;;;;;;27.00;16.35;;;;;;;2.89;40.62;94100.50;5020475;28;20698;-75
2022/04/01 09:37:54;;;;;;;14.75;9.43;;;;;;;2.25;40.55;94096.75;5023736;28;20113;-75
2022/04/01 09:40:21;;;;;;;8.60;6.15;;;;;;;2.73;38.92;94101.31;5043017;28;20188;-75
2022/04/01 09:42:47;;;;;;;12.38;8.68;;;;;;;2.98;36.61;94096.03;5041805;28;20101;-73
2022/04/01 09:45:23;;;;;;;11.25;8.55;;;;;;;3.10;38.74;94103.56;5020051;28;20082;-73
2022/04/01 09:48:01;;;;;;;16.38;12.15;;;;;;;3.27;39.74;94099.91;4989987;28;20575;-74
2022/04/01 09:50:31;;;;;;;16.27;11.00;;;;;;;3.31;38.65;94108.28;5004601;28;20352;-73
2022/04/01 09:53:08;;;;;;;20.75;15.60;;;;;;;3.51;38.79;94107.91;5022453;28;20175;-74
2022/04/01 09:55:37;;;;;;;8.02;5.57;;;;;;;3.03;34.65;94100.81;5017753;28;20094;-74
2022/04/01 09:58:04;;;;;;;18.40;13.68;;;;;;;3.46;37.62;94102.31;5014838;28;20101;-75
2022/04/01 10:00:29;;;;;;;14.57;9.80;;;;;;;3.11;34.87;94106.03;5028161;28;20093;-74
2022/04/01 10:02:55;;;;;;;15.80;11.50;;;;;;;3.19;37.71;94101.75;5040228;28;20561;-74
2022/04/01 10:05:20;;;;;;;11.85;8.02;;;;;;;3.02;36.50;94105.22;5038017;28;20088;-71
2022/04/01 10:07:46;;;;;;;11.13;7.53;;;;;;;2.06;40.05;94115.44;5021590;28;20152;-74
2022/04/01 10:10:11;;;;;;;14.68;10.00;;;;;;;2.89;40.17;94113.63;5026525;28;20098;-72
2022/04/01 10:12:41;;;;;;;7.90;5.82;;;;;;;2.92;37.09;94109.84;5020121;28;20077;-71
2022/04/01 10:15:07;;;;;;;12.52;8.02;;;;;;;3.19;37.81;94107.00;5038084;28;20187;-74
2022/04/01 10:17:33;;;;;;;15.95;10.98;;;;;;;3.28;39.63;94111.25;5029589;28;20097;-74
2022/04/01 10:19:59;;;;;;;16.02;10.75;;;;;;;3.26;37.57;94118.47;4979918;28;20163;-73
2022/04/01 10:22:25;;;;;;;14.32;9.88;;;;;;;3.09;36.97;94112.47;4987336;28;20228;-74
2022/04/01 10:25:12;;;;;;;13.48;9.82;;;;;;;3.31;38.21;94118.81;4996384;28;20082;-72
2022/04/01 10:27:41;;;;;;;19.08;12.40;;;;;;;3.42;39.37;94118.44;5014632;28;20120;-74
2022/04/01 10:30:08;;;;;;;14.85;10.07;;;;;;;3.48;38.16;94127.50;5029086;28;20197;-73
2022/04/01 10:32:41;;;;;;;14.20;9.85;;;;;;;3.65;38.26;94111.63;5010304;28;20174;-73
2022/04/01 10:35:08;;;;;;;14.90;10.93;;;;;;;3.79;37.08;94110.09;4994627;28;20161;-72
2022/04/01 10:37:34;;;;;;;13.55;7.68;;;;;;;3.86;35.06;94118.94;4986129;28;20106;-73
2022/04/01 10:40:08;;;;;;;20.58;13.82;;;;;;;3.84;38.91;94120.09;5014979;28;20082;-74
2022/04/01 10:42:35;;;;;;;8.23;6.63;;;;;;;2.96;38.44;94123.50;5019280;28;20145;-74
2022/04/01 10:45:20;;;;;;;11.57;7.25;;;;;;;3.53;38.59;94129.59;5021638;28;20074;-74
2022/04/01 10:53:35;;;;;;;16.58;11.18;;;;;;;3.04;39.91;94137.44;5017714;28;20929;-75
2022/04/01 10:56:25;;;;;;;15.52;9.00;;;;;;;3.13;38.17;94132.97;5001717;28;20074;-74
2022/04/01 10:59:12;;;;;;;15.95;11.32;;;;;;;3.12;37.68;94133.16;5029191;28;20206;-74
2022/04/01 11:01:43;;;;;;;10.88;7.45;;;;;;;3.00;37.39;94137.94;5041118;28;20224;-75
2022/04/01 11:04:12;;;;;;;17.10;10.90;;;;;;;2.76;40.98;94134.38;5020608;28;20087;-74
2022/04/01 11:07:01;;;;;;;7.38;5.18;;;;;;;2.01;37.89;94137.75;5026743;28;20102;-72
2022/04/01 11:09:36;;;;;;;7.57;5.13;;;;;;;2.86;39.02;94137.63;5015954;28;20626;-75
2022/04/01 11:12:16;;;;;;;10.80;7.68;;;;;;;2.95;38.20;94143.69;4986256;28;20151;-71
2022/04/01 11:14:55;;;;;;;9.80;7.20;;;;;;;3.14;39.42;94142.50;5002653;28;20118;-75
2022/04/01 11:17:40;;;;;;;13.68;9.57;;;;;;;3.02;40.38;94143.84;5014420;28;20084;-73
2022/04/01 11:20:37;;;;;;;14.18;10.75;;;;;;;3.23;39.96;94151.19;5024041;28;20093;-74
2022/04/01 11:23:04;;;;;;;12.13;7.70;;;;;;;2.66;38.84;94150.31;5010960;28;20508;-74
2022/04/01 11:25:31;;;;;;;11.77;8.60;;;;;;;1.96;42.30;94149.72;5024481;28;20077;-74
2022/04/01 11:27:56;;;;;;;18.13;12.48;;;;;;;2.36;42.54;94147.31;5025050;28;20141;-75
2022/04/01 11:30:26;;;;;;;10.83;7.63;;;;;;;1.41;42.89;94167.53;5024554;28;20129;-74
2022/04/01 11:32:54;;;;;;;8.10;5.65;;;;;;;1.39;40.16;94169.50;5024415;28;20467;-71
2022/04/01 11:35:24;;;;;;;7.15;4.60;;;;;;;1.00;41.55;94171.56;5024563;28;20152;-74
2022/04/01 11:37:50;;;;;;;6.53;4.65;;;;;;;0.46;43.12;94173.28;5016294;28;20639;-72
2022/04/01 11:40:22;;;;;;;18.02;12.65;;;;;;;1.53;43.28;94175.94;4996111;28;20082;-75
2022/04/01 11:42:49;;;;;;;9.18;5.50;;;;;;;0.24;42.62;94171.94;5046749;28;20139;-73
2022/04/01 11:45:15;;;;;;;10.68;6.28;;;;;;;-1.44;46.85;94176.97;5039202;28;20275;-73
2022/04/01 11:47:40;;;;;;;10.00;5.65;;;;;;;0.25;43.64;94176.22;4993751;28;20148;-73
2022/04/01 11:50:09;;;;;;;7.78;5.82;;;;;;;0.55;43.39;94174.16;4996085;28;20109;-74
2022/04/01 11:52:45;;;;;;;8.57;6.57;;;;;;;0.76;41.34;94175.66;5023034;28;20088;-71
2022/04/01 11:55:21;;;;;;;10.80;6.97;;;;;;;0.83;41.32;94181.09;5040689;28;20109;-74
2022/04/01 11:57:47;;;;;;;9.60;7.18;;;;;;;0.41;45.09;94179.97;5019168;28;20113;-75